createdAt,value
2022-08-28T00:00:54.723Z,18.50
2022-08-28T00:05:57.785Z,18.30
2022-08-28T00:11:00.622Z,18.30
2022-08-28T00:16:04.286Z,18.20
2022-08-28T00:21:07.558Z,18.30
2022-08-28T00:26:11.447Z,18.30
2022-08-28T00:31:14.568Z,18.30
2022-08-28T00:36:17.447Z,18.20
2022-08-28T00:41:24.805Z,18.30
2022-08-28T00:46:30.434Z,18.20
2022-08-28T00:51:52.973Z,18.20
2022-08-28T00:56:56.713Z,18.30
2022-08-28T01:02:00.903Z,18.20
2022-08-28T01:07:08.290Z,18.30
2022-08-28T01:12:41.220Z,18.20
2022-08-28T01:17:48.426Z,18.10
2022-08-28T01:23:02.967Z,18.10
2022-08-28T01:28:10.773Z,18.20
2022-08-28T01:33:16.159Z,18.20
2022-08-28T01:38:20.259Z,18.10
2022-08-28T01:43:31.646Z,18.20
2022-08-28T01:48:37.968Z,18.20
2022-08-28T01:53:45.334Z,18.20
2022-08-28T01:58:49.657Z,18.20
2022-08-28T02:03:56.114Z,18.10
2022-08-28T02:09:04.418Z,18.00
2022-08-28T02:14:08.097Z,18.10
2022-08-28T02:19:12.457Z,18.00
2022-08-28T02:24:17.483Z,17.90
2022-08-28T02:29:20.447Z,17.90
2022-08-28T02:34:24.097Z,17.90
2022-08-28T02:39:27.438Z,17.80
2022-08-28T02:44:30.347Z,18.00
2022-08-28T02:49:36.143Z,18.00
2022-08-28T02:54:40.348Z,17.90
2022-08-28T02:59:44.362Z,18.00
2022-08-28T03:04:47.128Z,17.90
2022-08-28T03:09:50.998Z,17.90
2022-08-28T03:14:55.091Z,17.60
2022-08-28T03:19:58.153Z,17.50
2022-08-28T03:25:01.149Z,17.50
2022-08-28T03:30:07.311Z,17.40
2022-08-28T03:35:10.848Z,17.20
2022-08-28T03:40:15.066Z,17.20
2022-08-28T03:45:18.097Z,17.00
2022-08-28T03:50:20.935Z,16.90
2022-08-28T03:55:23.847Z,16.90
2022-08-28T04:00:26.688Z,16.90
2022-08-28T04:05:30.777Z,16.90
2022-08-28T04:10:34.108Z,16.90
2022-08-28T04:15:36.918Z,17.10
2022-08-28T04:20:39.848Z,17.10
2022-08-28T04:25:42.708Z,17.20
2022-08-28T04:30:45.397Z,17.30
2022-08-28T04:35:48.529Z,17.70
2022-08-28T04:40:51.458Z,17.90
2022-08-28T04:45:54.380Z,18.00
2022-08-28T04:50:57.383Z,18.10
2022-08-28T04:56:03.370Z,18.30
2022-08-28T05:01:09.001Z,18.50
2022-08-28T05:06:15.538Z,18.50
2022-08-28T05:11:33.033Z,18.60
2022-08-28T05:16:49.628Z,18.60
2022-08-28T05:21:53.438Z,18.50
2022-08-28T05:26:56.998Z,18.60
2022-08-28T05:32:00.889Z,18.60
2022-08-28T05:37:04.047Z,18.60
2022-08-28T05:42:07.118Z,18.70
2022-08-28T05:47:11.092Z,18.60
2022-08-28T05:52:14.099Z,18.50
2022-08-28T05:57:18.889Z,18.60
2022-08-28T06:02:22.196Z,19.10
2022-08-28T06:07:26.522Z,19.80
2022-08-28T06:12:29.459Z,20.40
2022-08-28T06:17:35.580Z,21.00
2022-08-28T06:22:38.570Z,21.40
2022-08-28T06:27:41.333Z,21.80
2022-08-28T06:32:44.412Z,22.20
2022-08-28T06:37:47.480Z,22.50
2022-08-28T06:42:50.690Z,22.80
2022-08-28T06:47:54.019Z,23.10
2022-08-28T06:52:59.170Z,23.30
2022-08-28T06:58:06.379Z,23.30
2022-08-28T07:03:09.884Z,23.40
2022-08-28T07:08:13.701Z,23.40
2022-08-28T07:13:16.720Z,23.60
2022-08-28T07:18:19.585Z,23.80
2022-08-28T07:23:22.512Z,23.70
2022-08-28T07:28:25.413Z,23.80
2022-08-28T07:33:29.611Z,23.70
2022-08-28T07:38:32.491Z,23.80
2022-08-28T07:43:53.720Z,24.10
2022-08-28T07:48:59.199Z,24.20
2022-08-28T07:54:04.225Z,24.50
2022-08-28T07:59:09.183Z,24.80
2022-08-28T08:04:14.512Z,24.90
2022-08-28T08:09:19.539Z,25.40
2022-08-28T08:14:22.839Z,25.70
2022-08-28T08:19:25.756Z,26.10
2022-08-28T08:24:30.670Z,26.00
2022-08-28T08:29:36.923Z,25.30
2022-08-28T08:34:43.025Z,25.10
2022-08-28T08:39:46.331Z,25.00
2022-08-28T08:44:52.781Z,25.10
2022-08-28T08:50:17.193Z,24.90
2022-08-28T08:55:32.523Z,24.80
2022-08-28T09:00:48.649Z,25.10
2022-08-28T09:06:13.889Z,25.20
2022-08-28T09:12:10.359Z,25.40
2022-08-28T09:17:17.021Z,25.20
2022-08-28T09:22:20.367Z,24.90
2022-08-28T09:27:27.468Z,25.10
2022-08-28T09:32:32.987Z,25.10
2022-08-28T09:37:37.087Z,25.10
2022-08-28T09:42:58.509Z,25.10
2022-08-28T09:48:03.356Z,25.00
2022-08-28T09:53:12.510Z,24.90
2022-08-28T09:58:15.740Z,25.10
2022-08-28T10:03:31.587Z,25.10
2022-08-28T10:09:11.682Z,25.00
2022-08-28T10:14:58.247Z,24.80
2022-08-28T10:20:40.655Z,24.80
2022-08-28T10:26:20.539Z,24.80
2022-08-28T10:31:36.722Z,24.60
2022-08-28T10:36:39.743Z,24.40
2022-08-28T10:41:54.543Z,24.50
2022-08-28T10:46:59.169Z,24.50
2022-08-28T10:52:07.113Z,24.50
2022-08-28T10:57:39.525Z,24.50
2022-08-28T11:02:47.436Z,24.70
2022-08-28T11:07:59.409Z,24.90
2022-08-28T11:13:03.740Z,25.10
2022-08-28T11:18:16.111Z,25.10
2022-08-28T11:23:32.499Z,25.10
2022-08-28T11:28:35.729Z,25.30
2022-08-28T11:33:45.009Z,25.20
2022-08-28T11:38:57.979Z,25.50
2022-08-28T11:44:10.219Z,26.00
2022-08-28T11:49:34.410Z,26.40
2022-08-28T11:55:05.360Z,26.10
2022-08-28T12:00:21.965Z,26.70
2022-08-28T12:05:31.398Z,27.20
2022-08-28T12:10:34.460Z,27.90
2022-08-28T12:15:40.858Z,29.80
2022-08-28T12:21:07.459Z,30.40
2022-08-28T12:26:17.353Z,30.40
2022-08-28T12:31:58.280Z,30.00
2022-08-28T12:37:04.068Z,30.80
2022-08-28T12:42:17.734Z,30.80
2022-08-28T12:47:23.364Z,31.20
2022-08-28T12:52:27.571Z,31.00
2022-08-28T12:57:31.460Z,30.30
2022-08-28T13:02:35.103Z,29.80
2022-08-28T13:07:52.419Z,29.30
2022-08-28T13:13:04.698Z,29.90
2022-08-28T13:18:08.916Z,29.20
2022-08-28T13:23:30.161Z,28.50
2022-08-28T13:28:41.321Z,28.00
2022-08-28T13:34:21.399Z,28.20
2022-08-28T13:39:24.710Z,27.40
2022-08-28T13:44:48.940Z,27.00
2022-08-28T13:49:51.859Z,26.30
2022-08-28T13:54:54.713Z,26.20
2022-08-28T13:59:58.389Z,26.00
2022-08-28T14:05:01.736Z,26.00
2022-08-28T14:10:05.179Z,26.20
2022-08-28T14:15:08.250Z,26.10
2022-08-28T14:20:12.430Z,25.90
2022-08-28T14:25:15.570Z,26.10
2022-08-28T14:30:18.876Z,26.00
2022-08-28T14:35:21.859Z,25.90
2022-08-28T14:40:24.849Z,26.10
2022-08-28T14:45:27.813Z,26.00
2022-08-28T14:50:30.778Z,25.90
2022-08-28T14:55:40.170Z,25.60
2022-08-28T15:00:45.884Z,25.50
2022-08-28T15:05:48.808Z,25.30
2022-08-28T15:10:51.711Z,25.20
2022-08-28T15:16:02.935Z,25.10
2022-08-28T15:21:07.943Z,25.30
2022-08-28T15:26:15.136Z,25.30
2022-08-28T15:31:19.387Z,24.70
2022-08-28T15:36:23.410Z,24.10
2022-08-28T15:41:26.691Z,23.90
2022-08-28T15:46:33.765Z,23.50
2022-08-28T15:51:36.820Z,23.30
2022-08-28T15:56:42.011Z,22.70
2022-08-28T16:01:45.419Z,22.50
2022-08-28T16:06:48.282Z,22.20
2022-08-28T16:11:59.633Z,22.00
2022-08-28T16:17:11.105Z,21.50
2022-08-28T16:22:17.403Z,21.20
2022-08-28T16:27:20.343Z,21.20
2022-08-28T16:32:24.613Z,21.00
2022-08-28T16:37:39.823Z,21.00
2022-08-28T16:42:51.670Z,20.90
2022-08-28T16:47:55.120Z,20.70
2022-08-28T16:53:03.542Z,20.70
2022-08-28T16:58:09.448Z,20.50
2022-08-28T17:03:12.728Z,20.10
2022-08-28T17:08:15.798Z,20.10
2022-08-28T17:13:19.297Z,20.00
2022-08-28T17:18:22.192Z,20.00
2022-08-28T17:23:25.217Z,19.90
2022-08-28T17:28:28.850Z,19.80
2022-08-28T17:33:32.979Z,19.60
2022-08-28T17:38:36.350Z,19.50
2022-08-28T17:43:39.640Z,19.60
2022-08-28T17:48:42.519Z,19.50
2022-08-28T17:53:57.378Z,19.50
2022-08-28T17:59:00.593Z,19.50
2022-08-28T18:04:05.508Z,19.40
2022-08-28T18:09:09.780Z,19.40
2022-08-28T18:14:12.848Z,19.40
2022-08-28T18:19:16.728Z,19.30
2022-08-28T18:24:19.549Z,19.30
2022-08-28T18:29:22.438Z,19.20
2022-08-28T18:34:28.328Z,19.20
2022-08-28T18:39:31.364Z,19.20
2022-08-28T18:44:35.523Z,19.10
2022-08-28T18:49:38.589Z,19.10
2022-08-28T18:54:42.186Z,19.20
2022-08-28T18:59:47.695Z,19.20
2022-08-28T19:04:50.405Z,19.10
2022-08-28T19:09:57.181Z,19.20
2022-08-28T19:15:00.622Z,19.20
2022-08-28T19:20:10.468Z,19.10
2022-08-28T19:25:27.642Z,19.10
2022-08-28T19:30:33.677Z,19.10
2022-08-28T19:35:36.718Z,19.00
2022-08-28T19:40:40.137Z,19.00
2022-08-28T19:45:45.231Z,19.00
2022-08-28T19:50:48.930Z,19.00
2022-08-28T19:55:52.139Z,19.10
2022-08-28T20:00:55.088Z,19.00
2022-08-28T20:05:58.040Z,19.00
2022-08-28T20:11:02.260Z,19.00
2022-08-28T20:16:06.003Z,19.00
2022-08-28T20:21:13.100Z,18.90
2022-08-28T20:26:15.996Z,19.00
2022-08-28T20:31:20.188Z,19.10
2022-08-28T20:36:26.782Z,19.20
2022-08-28T20:41:30.918Z,19.20
2022-08-28T20:46:40.058Z,19.20
2022-08-28T20:51:57.083Z,19.20
2022-08-28T20:57:02.748Z,19.40
2022-08-28T21:02:06.337Z,19.30
2022-08-28T21:07:10.148Z,19.40
2022-08-28T21:12:13.009Z,19.40
2022-08-28T21:17:15.825Z,19.40
2022-08-28T21:22:33.014Z,19.40
2022-08-28T21:27:39.017Z,19.50
2022-08-28T21:32:42.027Z,19.40
2022-08-28T21:37:45.253Z,19.40
2022-08-28T21:42:48.103Z,19.50
2022-08-28T21:47:50.999Z,19.50
2022-08-28T21:52:54.143Z,19.50
2022-08-28T21:57:57.291Z,19.50
2022-08-28T22:03:00.378Z,19.50
2022-08-28T22:08:03.487Z,19.50
2022-08-28T22:13:07.106Z,19.40
2022-08-28T22:18:11.588Z,19.40
2022-08-28T22:23:14.412Z,19.40
2022-08-28T22:28:17.402Z,19.50
2022-08-28T22:33:20.317Z,19.40
2022-08-28T22:38:25.260Z,19.50
2022-08-28T22:43:27.989Z,19.50
2022-08-28T22:48:31.693Z,19.40
2022-08-28T22:53:35.988Z,19.40
2022-08-28T22:58:39.574Z,19.30
2022-08-28T23:03:43.147Z,19.30
2022-08-28T23:08:46.063Z,19.30
2022-08-28T23:13:48.846Z,19.20
2022-08-28T23:19:09.185Z,19.20
2022-08-28T23:24:16.767Z,19.20
2022-08-28T23:29:19.623Z,19.10
2022-08-28T23:34:22.428Z,19.00
2022-08-28T23:39:27.773Z,19.00
2022-08-28T23:44:30.718Z,18.90
2022-08-28T23:49:33.902Z,18.90
2022-08-28T23:54:44.612Z,18.90
2022-08-28T23:59:47.505Z,18.80
